Wilton, New York
Current Conditions -  °F | °C
As of 3:53 PM on Tuesday 27 Jan 2015 (Local Time) from KGFL Reporting Station
Broken Clouds Broken Clouds  
Wind Chill: -19°   Ceiling: 7000
Heat Index: -11°   Visibility: 10mi
Dew Point: -18°   Wind: 15mph
Humidity: 56%   Direction: 40°NE
Pressure: 29.84"   Gusts: NA
Location:  43.1979°N, 73.6839°W
Report Text: KGFL 272053Z AUTO 04013KT 10SM BKN070 M11/M18 A2984 RMK AO2 PK WND 04026/2031 SLP116 60001 T11061178 51008
Loading
Personal Weather Stations






























Interactive Weather Map New forecast layout! Learn more

10-Day Weather Forecast

Advertisements
Track Severe Weather on mobile